Terminal Aerodrome Forecast
Issued by NWS

Current Version | Previous Version | Text Only | Print | Product List | Glossary Off
Versions: 1 2 3 4 5 6 7 8 9 10 11 12

000
FTUS44 KSJT 221135
TAFBBD
TAF
KBBD 221135Z 2212/2312 15008KT P6SM SCT020
      TEMPO 2212/2214 BKN020
     FM221600 15011G17KT P6SM BKN050
     FM230100 13009KT P6SM SCT050
     FM231000 13008KT P6SM SCT025
      AMD NOT SKED=

USA.gov is the U.S. government's official web portal to all federal, state and local government web resources and services.